Currently 55°F in Hemet, California, USA
55°F
55°F / 43°F
calm
0.00"
Thursday, December 3, 2020 8:57 AM PST

Hemet, California Weather Summary
Last 36 Hours

Temperature Winds Hourly Humidity Dewpoint
Time Report Norm Report Norm Max Gusts Precip. Rpt. Norm Rpt. Norm Pressure
1,2Thu 08:57 AM  54.7°F  56°F  calm  calm  none  0.00"  17%  46%  9°F  35°F  30.27"
Thu 08:00 AM  48.6°F  52°F  calm  calm  none  0.00"  18%  48%  5°F  32°F  30.26"
Thu 07:00 AM  47.8°F  49°F  calm  1 mph  none  0.00"  18%  49%  4°F  30°F  30.24"
Thu 06:00 AM  45.5°F  49°F  calm  1 mph  none  0.00"  19%  49%  4°F  30°F  30.22"
3Thu 05:27 AM  42.8°F  49°F  calm  1 mph  none  ----  22%  49%  5°F  30°F  30.21"
Thu 05:00 AM  45.5°F  49°F  calm  calm  none  0.00"  21%  49%  6°F  30°F  30.20"
Thu 04:00 AM  48.0°F  49°F  calm  calm  none  0.00"  17%  49%  3°F  30°F  30.20"
Thu 03:00 AM  48.6°F  49°F  calm  calm  none  0.00"  18%  49%  5°F  30°F  30.19"
Thu 02:00 AM  49.5°F  50°F  calm  1 mph  none  0.00"  19%  49%  7°F  30°F  30.18"
Thu 01:00 AM  51.1°F  50°F  calm  1 mph  none  0.00"  15%  49%  3°F  31°F  30.16"
Thu 12:01 AM  48.6°F  50°F  calm  calm  none  0.00"  20%  49%  7°F  31°F  30.16"
Wed 11:00 PM  53.2°F  51°F  calm  1 mph  none  0.00"  15%  49%  5°F  31°F  30.16"
Wed 10:00 PM  55.4°F  51°F  calm  1 mph  none  0.00"  13%  48%  3°F  31°F  30.17"
Wed 09:00 PM  54.5°F  52°F  calm  1 mph  none  0.00"  14%  48%  4°F  32°F  30.16"
Wed 08:00 PM  55.9°F  53°F  calm  1 mph  none  0.00"  14%  47%  5°F  32°F  30.15"
Wed 07:00 PM  57.6°F  54°F  calm  1 mph  none  0.00"  14%  46%  6°F  32°F  30.12"
Wed 06:00 PM  60.4°F  55°F  calm  1 mph  none  0.00"  13%  45%  7°F  33°F  30.11"
Wed 05:00 PM  63.9°F  58°F  calm  1 mph  none  0.00"  15%  42%  13°F  34°F  30.09"
Wed 04:00 PM  69.4°F  63°F  calm  1 mph  3 mph  0.00"  10%  38%  8°F  36°F  30.07"
Wed 03:00 PM  73.2°F  64°F  calm  1 mph  7 mph  0.00"  10%  35%  11°F  35°F  30.06"
Wed 02:00 PM  75.6°F  65°F  2 mph W  1 mph  7 mph  0.00"  10%  34%  13°F  35°F  30.06"
Wed 01:00 PM  75.4°F  64°F  3 mph W  1 mph  6 mph  0.00"  10%  35%  13°F  35°F  30.07"
Wed 12:00 PM  72.5°F  62°F  calm  1 mph  none  0.00"  11%  37%  13°F  35°F  30.08"
Wed 11:00 AM  70.0°F  61°F  calm  1 mph  none  0.00"  13%  40%  15°F  35°F  30.10"
Wed 10:00 AM  68.9°F  58°F  calm  1 mph  none  0.00"  13%  43%  14°F  35°F  30.12"
Wed 09:00 AM  66.0°F  56°F  calm  calm  none  0.00"  11%  46%  8°F  35°F  30.13"
Wed 08:00 AM  57.6°F  52°F  calm  calm  none  0.00"  16%  47%  10°F  32°F  30.12"
Wed 07:00 AM  54.1°F  49°F  calm  1 mph  none  0.00"  14%  49%  4°F  30°F  30.09"
Wed 06:00 AM  56.5°F  49°F  calm  1 mph  none  0.00"  13%  48%  4°F  29°F  30.07"
Wed 05:01 AM  55.6°F  49°F  calm  calm  none  0.00"  13%  48%  3°F  29°F  30.05"
Wed 04:00 AM  55.0°F  49°F  calm  calm  none  0.00"  13%  48%  3°F  30°F  30.06"
Wed 03:00 AM  55.9°F  49°F  calm  calm  none  0.00"  12%  48%  2°F  30°F  30.07"
Wed 02:00 AM  55.0°F  50°F  calm  1 mph  none  0.00"  13%  48%  3°F  30°F  30.09"
Wed 01:00 AM  55.9°F  50°F  calm  1 mph  none  0.00"  12%  48%  2°F  30°F  30.09"
Wed 12:01 AM  57.6°F  50°F  calm  calm  none  0.00"  12%  49%  3°F  31°F  30.09"
Tue 11:00 PM  56.7°F  51°F  calm  1 mph  none  0.00"  13%  48%  4°F  31°F  30.09"
Tue 10:00 PM  56.8°F  51°F  calm  1 mph  none  0.00"  14%  48%  6°F  31°F  30.09"
Tue 09:00 PM  57.7°F  52°F  calm  1 mph  none  0.00"  14%  47%  7°F  31°F  30.09"

  1. Current weather data. No green row appears if the current weather data is also the high or low for the current day.
  2. High temperature for the current day.
  3. Low temperature for the current day.

The Hemet weather pages are a service of WeatherCurrents. Hemet, California is located in the San Jacinto Valley, in western Riverside County, at the foot of the San Jacinto mountains.
Copyright ©2020  WeatherCurrents. All rights reserved. - Submit questions and comments - Privacy Policy

This page automatically refreshes every 10 minutes.